createdAt,value
2023-05-14T00:00:48.569Z,15.88
2023-05-14T00:03:16.450Z,14.48
2023-05-14T00:05:44.253Z,14.93
2023-05-14T00:08:13.406Z,15.23
2023-05-14T00:13:08.732Z,15.38
2023-05-14T00:15:36.556Z,15.45
2023-05-14T00:18:04.650Z,16.02
2023-05-14T00:20:32.378Z,15.57
2023-05-14T00:23:00.150Z,15.50
2023-05-14T00:25:29.661Z,15.80
2023-05-14T00:27:57.445Z,16.00
2023-05-14T00:30:25.387Z,16.10
2023-05-14T00:32:53.351Z,16.02
2023-05-14T00:35:21.545Z,16.27
2023-05-14T00:41:38.374Z,15.05
2023-05-14T00:44:06.359Z,16.45
2023-05-14T00:46:34.078Z,15.77
2023-05-14T00:49:01.861Z,16.48
2023-05-14T00:51:29.617Z,15.85
2023-05-14T00:53:57.657Z,16.70
2023-05-14T00:56:26.678Z,16.35
2023-05-14T00:58:55.790Z,16.25
2023-05-14T01:03:53.402Z,15.13
2023-05-14T01:06:27.582Z,16.15
2023-05-14T01:09:02.800Z,17.33
2023-05-14T01:11:31.583Z,17.45
2023-05-14T01:14:05.826Z,16.88
2023-05-14T01:16:35.171Z,16.50
2023-05-14T01:19:03.919Z,16.40
2023-05-14T01:21:38.296Z,17.33
2023-05-14T01:24:06.598Z,16.73
2023-05-14T01:26:34.781Z,16.43
2023-05-14T01:29:05.323Z,17.60
2023-05-14T01:31:34.177Z,16.30
2023-05-14T01:34:02.192Z,16.42
2023-05-14T01:36:30.100Z,16.23
2023-05-14T01:38:59.491Z,16.13
2023-05-14T01:41:27.656Z,16.30
2023-05-14T01:43:55.730Z,16.50
2023-05-14T01:46:25.069Z,15.60
2023-05-14T01:48:52.784Z,16.25
2023-05-14T01:51:20.697Z,16.65
2023-05-14T01:53:48.453Z,17.13
2023-05-14T01:56:17.572Z,16.67
2023-05-14T01:58:45.416Z,16.42
2023-05-14T02:01:13.118Z,16.27
2023-05-14T02:03:40.929Z,16.23
2023-05-14T02:06:08.812Z,15.38
2023-05-14T02:08:36.524Z,16.02
2023-05-14T02:11:04.224Z,15.95
2023-05-14T02:13:33.330Z,16.15
2023-05-14T02:16:01.075Z,16.20
2023-05-14T02:18:28.926Z,16.30
2023-05-14T02:20:59.643Z,16.00
2023-05-14T02:23:37.852Z,15.98
2023-05-14T02:26:09.559Z,16.52
2023-05-14T02:28:38.716Z,16.00
2023-05-14T02:33:34.224Z,15.65
2023-05-14T02:36:02.000Z,16.00
2023-05-14T02:38:29.797Z,15.05
2023-05-14T02:40:57.792Z,15.70
2023-05-14T02:43:28.426Z,15.13
2023-05-14T02:45:59.908Z,17.20
2023-05-14T02:48:27.644Z,15.57
2023-05-14T02:50:55.429Z,15.88
2023-05-14T02:53:23.182Z,15.90
2023-05-14T02:55:53.900Z,16.48
2023-05-14T02:58:25.793Z,16.33
2023-05-14T03:00:57.587Z,14.52
2023-05-14T03:03:25.982Z,15.55
2023-05-14T03:05:54.084Z,15.80
2023-05-14T03:08:21.834Z,15.15
2023-05-14T03:10:49.634Z,15.52
2023-05-14T03:13:19.987Z,14.60
2023-05-14T03:15:48.532Z,15.73
2023-05-14T03:18:17.635Z,15.95
2023-05-14T03:20:45.397Z,15.48
2023-05-14T03:23:13.565Z,16.02
2023-05-14T03:25:41.489Z,15.68
2023-05-14T03:28:09.760Z,14.25
2023-05-14T03:30:37.731Z,15.13
2023-05-14T03:33:05.537Z,15.15
2023-05-14T03:35:34.657Z,15.68
2023-05-14T03:38:02.436Z,15.50
2023-05-14T03:40:30.182Z,15.68
2023-05-14T03:42:57.932Z,15.13
2023-05-14T03:45:26.932Z,15.27
2023-05-14T03:47:54.719Z,15.20
2023-05-14T03:50:25.524Z,15.70
2023-05-14T03:52:55.030Z,15.48
2023-05-14T03:55:22.963Z,15.55
2023-05-14T03:57:50.817Z,14.88
2023-05-14T04:00:18.871Z,15.30
2023-05-14T04:02:46.689Z,15.80
2023-05-14T04:05:14.464Z,15.45
2023-05-14T04:07:42.218Z,15.90
2023-05-14T04:10:11.870Z,15.52
2023-05-14T04:12:39.612Z,16.20
2023-05-14T04:15:11.515Z,15.45
2023-05-14T04:17:39.323Z,14.32
2023-05-14T04:20:08.640Z,14.93
2023-05-14T04:22:36.362Z,14.85
2023-05-14T04:25:04.109Z,15.07
2023-05-14T04:27:34.118Z,15.85
2023-05-14T04:30:01.850Z,14.85
2023-05-14T04:32:30.233Z,15.18
2023-05-14T04:34:59.301Z,16.08
2023-05-14T04:37:27.198Z,14.73
2023-05-14T04:39:54.934Z,15.77
2023-05-14T04:42:22.713Z,15.85
2023-05-14T04:44:52.249Z,15.98
2023-05-14T04:47:21.074Z,16.00
2023-05-14T04:49:48.920Z,15.75
2023-05-14T04:52:16.645Z,14.57
2023-05-14T04:54:44.427Z,15.25
2023-05-14T04:57:12.200Z,15.05
2023-05-14T04:59:40.015Z,15.60
2023-05-14T05:02:09.219Z,14.35
2023-05-14T05:07:05.737Z,14.77
2023-05-14T05:09:33.502Z,15.38
2023-05-14T05:12:02.037Z,15.88
2023-05-14T05:14:29.788Z,16.52
2023-05-14T05:17:02.260Z,16.23
2023-05-14T05:19:42.237Z,15.68
2023-05-14T05:22:10.615Z,16.83
2023-05-14T05:24:38.352Z,16.42
2023-05-14T05:27:06.688Z,16.85
2023-05-14T05:29:34.468Z,16.17
2023-05-14T05:32:02.317Z,16.52
2023-05-14T05:34:31.689Z,16.23
2023-05-14T05:36:59.461Z,16.48
2023-05-14T05:39:27.222Z,16.17
2023-05-14T05:41:56.857Z,16.98
2023-05-14T05:44:24.985Z,16.75
2023-05-14T05:46:52.790Z,16.85
2023-05-14T05:49:20.872Z,17.27
2023-05-14T05:51:50.121Z,17.05
2023-05-14T05:54:24.221Z,19.02
2023-05-14T05:56:51.984Z,17.80
2023-05-14T05:59:19.678Z,18.55
2023-05-14T06:01:48.115Z,18.45
2023-05-14T06:04:15.865Z,17.77
2023-05-14T06:06:43.667Z,19.00
2023-05-14T06:11:41.037Z,18.30
2023-05-14T06:14:08.781Z,17.40
2023-05-14T06:16:36.654Z,18.98
2023-05-14T06:19:04.519Z,18.63
2023-05-14T06:21:32.302Z,19.83
2023-05-14T06:24:00.049Z,19.02
2023-05-14T06:26:29.120Z,19.00
2023-05-14T06:31:24.457Z,17.75
2023-05-14T06:33:52.236Z,19.80
2023-05-14T06:36:19.976Z,18.95
2023-05-14T06:38:47.714Z,19.27
2023-05-14T06:41:15.551Z,19.50
2023-05-14T06:43:44.695Z,18.90
2023-05-14T06:46:12.432Z,18.80
2023-05-14T06:48:40.415Z,17.98
2023-05-14T06:51:08.209Z,18.33
2023-05-14T06:53:35.953Z,18.83
2023-05-14T06:56:03.758Z,18.05
2023-05-14T06:58:31.522Z,18.55
2023-05-14T07:01:01.309Z,18.23
2023-05-14T07:03:29.160Z,18.60
2023-05-14T07:05:57.062Z,18.33
2023-05-14T07:08:24.863Z,18.50
2023-05-14T07:10:52.636Z,19.13
2023-05-14T07:13:20.516Z,18.20
2023-05-14T07:15:48.297Z,19.38
2023-05-14T07:18:17.453Z,16.88
2023-05-14T07:20:45.302Z,17.33
2023-05-14T07:23:13.024Z,17.40
2023-05-14T07:25:40.832Z,17.40
2023-05-14T07:28:08.569Z,16.85
2023-05-14T07:30:36.345Z,17.17
2023-05-14T07:33:04.129Z,17.75
2023-05-14T07:35:33.509Z,17.40
2023-05-14T07:38:01.320Z,17.45
2023-05-14T07:40:29.087Z,17.25
2023-05-14T07:42:56.950Z,17.58
2023-05-14T07:45:24.718Z,17.77
2023-05-14T07:47:52.576Z,17.87
2023-05-14T07:50:20.565Z,18.75
2023-05-14T07:52:49.739Z,18.88
2023-05-14T07:55:17.542Z,18.65
2023-05-14T07:57:45.714Z,17.83
2023-05-14T08:00:14.960Z,18.00
2023-05-14T08:02:42.861Z,18.52
2023-05-14T08:07:38.656Z,18.63
2023-05-14T08:10:09.300Z,17.90
2023-05-14T08:12:37.102Z,18.08
2023-05-14T08:15:05.647Z,18.27
2023-05-14T08:17:33.425Z,18.05
2023-05-14T08:20:01.450Z,18.50
2023-05-14T08:27:26.400Z,16.88
2023-05-14T08:29:54.152Z,17.48
2023-05-14T08:32:23.937Z,17.58
2023-05-14T08:34:52.906Z,17.90
2023-05-14T08:37:20.713Z,17.70
2023-05-14T08:39:48.564Z,16.95
2023-05-14T08:42:16.890Z,16.83
2023-05-14T08:44:49.443Z,17.92
2023-05-14T08:47:19.541Z,16.65
2023-05-14T08:49:49.588Z,17.35
2023-05-14T08:52:17.518Z,16.83
2023-05-14T08:54:48.217Z,17.50
2023-05-14T08:57:16.413Z,17.02
2023-05-14T09:02:17.329Z,17.73
2023-05-14T09:04:45.128Z,17.00
2023-05-14T09:07:12.973Z,17.30
2023-05-14T09:09:41.493Z,16.90
2023-05-14T09:12:10.229Z,16.80
2023-05-14T09:14:38.133Z,17.27
2023-05-14T09:17:05.989Z,16.70
2023-05-14T09:19:35.222Z,16.38
2023-05-14T09:22:02.971Z,16.00
2023-05-14T09:24:30.673Z,17.00
2023-05-14T09:26:59.349Z,17.90
2023-05-14T09:29:27.395Z,17.63
2023-05-14T09:31:55.778Z,17.02
2023-05-14T09:36:57.862Z,17.67
2023-05-14T09:39:25.869Z,16.95
2023-05-14T09:41:54.291Z,16.80
2023-05-14T09:46:50.490Z,17.00
2023-05-14T09:49:19.162Z,17.05
2023-05-14T09:54:15.965Z,16.25
2023-05-14T09:59:29.733Z,999.90
2023-05-14T10:01:58.838Z,999.90
2023-05-14T10:04:26.769Z,999.90
2023-05-14T10:06:54.731Z,999.90
2023-05-14T10:09:29.092Z,999.90
2023-05-14T10:12:00.047Z,999.90
2023-05-14T10:14:30.560Z,999.90
2023-05-14T10:17:00.513Z,999.90
2023-05-14T10:19:29.191Z,999.90
2023-05-14T10:21:58.464Z,999.90
2023-05-14T10:24:28.447Z,999.90
2023-05-14T10:26:56.971Z,999.90
2023-05-14T10:29:33.013Z,999.90
2023-05-14T10:32:05.090Z,999.90
2023-05-14T10:34:34.678Z,999.90
2023-05-14T10:37:03.034Z,999.90
2023-05-14T10:39:47.476Z,14.75
2023-05-14T10:42:18.010Z,15.30
2023-05-14T10:44:50.861Z,14.65
2023-05-14T10:47:18.867Z,14.73
2023-05-14T10:49:48.998Z,14.90
2023-05-14T10:52:18.744Z,15.15
2023-05-14T10:54:55.925Z,14.85
2023-05-14T10:57:26.341Z,14.73
2023-05-14T10:59:56.786Z,14.55
2023-05-14T11:02:26.356Z,14.60
2023-05-14T11:04:59.704Z,15.07
2023-05-14T11:07:32.282Z,15.18
2023-05-14T11:10:05.912Z,15.25
2023-05-14T11:12:34.332Z,14.93
2023-05-14T11:17:32.484Z,15.10
2023-05-14T11:20:00.996Z,15.20
2023-05-14T11:22:28.928Z,14.82
2023-05-14T11:24:56.738Z,14.77
2023-05-14T11:27:26.361Z,15.65
2023-05-14T11:29:55.848Z,15.43
2023-05-14T11:32:23.745Z,15.05
2023-05-14T11:34:51.654Z,15.05
2023-05-14T11:37:19.414Z,15.65
2023-05-14T11:39:52.555Z,15.88
2023-05-14T11:42:21.447Z,15.27
2023-05-14T11:44:51.985Z,15.70
2023-05-14T11:47:20.941Z,15.90
2023-05-14T11:49:49.103Z,15.80
2023-05-14T11:52:19.433Z,15.07
2023-05-14T11:54:47.492Z,15.57
2023-05-14T11:57:17.393Z,15.40
2023-05-14T11:59:45.268Z,15.02
2023-05-14T12:02:15.682Z,15.52
2023-05-14T12:04:44.083Z,15.65
2023-05-14T12:07:13.466Z,15.82
2023-05-14T12:09:45.264Z,15.88
2023-05-14T12:12:13.703Z,15.70
2023-05-14T12:14:42.790Z,14.73
2023-05-14T12:17:16.555Z,14.85
2023-05-14T12:19:45.137Z,15.50
2023-05-14T12:27:10.364Z,14.50
2023-05-14T12:29:39.260Z,15.20
2023-05-14T12:32:10.942Z,14.75
2023-05-14T12:34:40.174Z,15.73
2023-05-14T12:37:08.069Z,15.30
2023-05-14T12:39:35.878Z,14.95
2023-05-14T12:42:03.733Z,16.00
2023-05-14T12:44:31.548Z,15.05
2023-05-14T12:46:59.492Z,15.75
2023-05-14T12:49:27.297Z,15.45
2023-05-14T12:52:07.686Z,15.13
2023-05-14T12:54:44.169Z,15.00
2023-05-14T12:57:11.980Z,15.10
2023-05-14T12:59:39.890Z,15.55
2023-05-14T13:02:08.613Z,15.48
2023-05-14T13:04:37.293Z,15.60
2023-05-14T13:07:08.815Z,15.05
2023-05-14T13:09:36.609Z,15.52
2023-05-14T13:12:04.700Z,15.70
2023-05-14T13:14:32.487Z,15.60
2023-05-14T13:17:00.444Z,15.60
2023-05-14T13:19:28.412Z,15.75
2023-05-14T13:21:56.198Z,15.70
2023-05-14T13:24:25.677Z,15.20
2023-05-14T13:26:53.450Z,15.48
2023-05-14T13:29:22.881Z,14.90
2023-05-14T13:31:50.651Z,15.15
2023-05-14T13:34:19.025Z,16.00
2023-05-14T13:36:49.243Z,16.15
2023-05-14T13:39:17.270Z,15.77
2023-05-14T13:41:46.509Z,16.70
2023-05-14T13:44:14.340Z,16.85
2023-05-14T13:46:42.095Z,16.33
2023-05-14T13:49:09.981Z,17.20
2023-05-14T13:51:37.753Z,17.20
2023-05-14T13:54:05.647Z,16.63
2023-05-14T13:56:33.548Z,15.98
2023-05-14T13:59:03.462Z,15.60
2023-05-14T14:01:31.819Z,15.70
2023-05-14T14:03:59.890Z,15.40
2023-05-14T14:06:28.254Z,15.30
2023-05-14T14:08:56.114Z,15.20
2023-05-14T14:11:23.980Z,15.70
2023-05-14T14:13:51.902Z,15.32
2023-05-14T14:16:21.082Z,15.13
2023-05-14T14:18:49.091Z,15.25
2023-05-14T14:21:18.172Z,15.00
2023-05-14T14:23:47.319Z,15.05
2023-05-14T14:26:15.189Z,15.15
2023-05-14T14:28:43.017Z,15.47
2023-05-14T14:31:11.788Z,16.02
2023-05-14T14:33:41.081Z,15.10
2023-05-14T14:36:09.134Z,15.10
2023-05-14T14:38:36.975Z,15.70
2023-05-14T14:41:07.052Z,15.60
2023-05-14T14:43:35.462Z,15.00
2023-05-14T14:46:04.080Z,15.80
2023-05-14T14:51:03.286Z,15.40
2023-05-14T14:53:31.517Z,15.90
2023-05-14T14:56:00.492Z,15.57
2023-05-14T14:58:28.831Z,15.48
2023-05-14T15:00:58.088Z,15.65
2023-05-14T15:03:26.428Z,16.02
2023-05-14T15:05:54.430Z,15.85
2023-05-14T15:08:27.014Z,15.07
2023-05-14T15:10:55.094Z,14.95
2023-05-14T15:13:23.248Z,15.07
2023-05-14T15:15:52.107Z,14.52
2023-05-14T15:18:19.951Z,15.52
2023-05-14T15:20:47.781Z,16.00
2023-05-14T15:23:15.652Z,15.98
2023-05-14T15:25:45.103Z,15.70
2023-05-14T15:28:12.893Z,14.70
2023-05-14T15:30:40.757Z,15.07
2023-05-14T15:33:09.022Z,15.37
2023-05-14T15:35:36.869Z,14.82
2023-05-14T15:38:04.772Z,15.60
2023-05-14T15:40:34.941Z,14.80
2023-05-14T15:43:04.297Z,15.07
2023-05-14T15:45:32.012Z,14.90
2023-05-14T15:47:59.937Z,14.77
2023-05-14T15:50:27.824Z,15.40
2023-05-14T15:52:55.640Z,15.50
2023-05-14T15:55:23.385Z,15.30
2023-05-14T15:57:51.215Z,15.37
2023-05-14T16:00:21.452Z,16.13
2023-05-14T16:02:49.431Z,15.32
2023-05-14T16:05:17.271Z,15.57
2023-05-14T16:07:45.096Z,15.60
2023-05-14T16:10:12.899Z,15.47
2023-05-14T16:12:41.026Z,15.43
2023-05-14T16:15:11.664Z,15.90
2023-05-14T16:17:40.918Z,16.40
2023-05-14T16:20:09.700Z,15.77
2023-05-14T16:25:08.329Z,15.25
2023-05-14T16:27:36.517Z,15.52
2023-05-14T16:30:04.898Z,16.27
2023-05-14T16:32:32.730Z,15.77
2023-05-14T16:35:02.780Z,15.50
2023-05-14T16:37:30.600Z,15.38
2023-05-14T16:39:58.675Z,15.75
2023-05-14T16:42:26.768Z,15.25
2023-05-14T16:44:57.586Z,16.40
2023-05-14T16:47:25.402Z,15.20
2023-05-14T16:49:53.297Z,15.30
2023-05-14T16:52:22.600Z,15.82
2023-05-14T16:54:50.433Z,15.63
2023-05-14T16:57:18.312Z,15.60
2023-05-14T16:59:46.393Z,15.80
2023-05-14T17:02:14.312Z,15.32
2023-05-14T17:04:42.387Z,15.10
2023-05-14T17:07:10.328Z,15.32
2023-05-14T17:09:39.499Z,15.93
2023-05-14T17:12:08.212Z,15.88
2023-05-14T17:17:03.722Z,15.55
2023-05-14T17:19:31.502Z,17.53
2023-05-14T17:21:59.278Z,15.77
2023-05-14T17:24:27.062Z,15.45
2023-05-14T17:26:56.192Z,15.50
2023-05-14T17:29:25.182Z,15.88
2023-05-14T17:31:53.062Z,15.85
2023-05-14T17:34:21.142Z,16.10
2023-05-14T17:36:49.043Z,16.25
2023-05-14T17:39:17.107Z,16.83
2023-05-14T17:41:44.877Z,16.38
2023-05-14T17:44:14.133Z,16.58
2023-05-14T17:46:42.558Z,16.60
2023-05-14T17:49:11.844Z,16.42
2023-05-14T17:51:39.671Z,16.13
2023-05-14T17:54:07.486Z,15.77
2023-05-14T17:56:35.298Z,15.88
2023-05-14T17:59:03.780Z,16.38
2023-05-14T18:01:33.029Z,16.15
2023-05-14T18:04:01.136Z,16.02
2023-05-14T18:06:29.115Z,16.48
2023-05-14T18:08:56.990Z,15.88
2023-05-14T18:11:24.837Z,16.33
2023-05-14T18:13:52.587Z,16.73
2023-05-14T18:16:20.499Z,16.15
2023-05-14T18:18:49.658Z,15.90
2023-05-14T18:21:17.642Z,15.73
2023-05-14T18:23:45.642Z,16.42
2023-05-14T18:26:13.561Z,16.20
2023-05-14T18:28:41.520Z,15.98
2023-05-14T18:31:12.039Z,17.00
2023-05-14T18:33:39.996Z,16.20
2023-05-14T18:36:09.251Z,15.77
2023-05-14T18:38:38.716Z,15.35
2023-05-14T18:41:06.534Z,15.85
2023-05-14T18:43:34.321Z,15.80
2023-05-14T18:46:02.182Z,15.60
2023-05-14T18:48:30.058Z,15.07
2023-05-14T18:50:58.070Z,15.50
2023-05-14T18:53:27.346Z,15.63
2023-05-14T18:55:55.202Z,15.35
2023-05-14T18:58:22.993Z,16.27
2023-05-14T19:00:50.956Z,16.63
2023-05-14T19:03:19.825Z,15.95
2023-05-14T19:08:15.619Z,15.93
2023-05-14T19:10:44.928Z,16.23
2023-05-14T19:13:12.877Z,15.55
2023-05-14T19:15:40.698Z,15.73
2023-05-14T19:18:08.690Z,16.10
2023-05-14T19:20:36.541Z,15.82
2023-05-14T19:23:04.557Z,15.82
2023-05-14T19:25:32.610Z,16.02
2023-05-14T19:28:03.718Z,15.60
2023-05-14T19:30:31.615Z,15.65
2023-05-14T19:32:59.677Z,101.97
2023-05-14T19:35:27.578Z,999.90
2023-05-14T19:37:55.466Z,999.90
2023-05-14T19:40:23.344Z,999.90
2023-05-14T19:42:51.215Z,87.47
2023-05-14T19:45:20.350Z,32.80
2023-05-14T19:47:52.767Z,18.02
2023-05-14T19:50:20.715Z,18.55
2023-05-14T19:52:48.637Z,18.42
2023-05-14T19:55:16.628Z,16.50
2023-05-14T19:57:44.489Z,21.95
2023-05-14T20:00:13.361Z,15.18
2023-05-14T20:02:43.263Z,16.35
2023-05-14T20:05:11.554Z,16.33
2023-05-14T20:07:40.469Z,15.90
2023-05-14T20:12:36.606Z,16.10
2023-05-14T20:15:04.686Z,15.48
2023-05-14T20:17:32.563Z,15.73
2023-05-14T20:20:02.233Z,15.55
2023-05-14T20:22:30.004Z,15.57
2023-05-14T20:24:57.757Z,15.68
2023-05-14T20:27:25.612Z,15.02
2023-05-14T20:29:54.210Z,15.68
2023-05-14T20:32:24.858Z,15.82
2023-05-14T20:34:52.902Z,15.35
2023-05-14T20:37:22.046Z,15.27
2023-05-14T20:39:52.678Z,15.02
2023-05-14T20:42:20.488Z,15.20
2023-05-14T20:44:48.741Z,14.80
2023-05-14T20:47:20.218Z,15.10
2023-05-14T20:49:48.050Z,15.27
2023-05-14T20:52:15.895Z,15.55
2023-05-14T20:54:45.265Z,14.93
2023-05-14T20:57:15.331Z,15.82
2023-05-14T20:59:44.316Z,15.75
2023-05-14T21:02:12.192Z,16.80
2023-05-14T21:04:40.157Z,15.73
2023-05-14T21:07:08.252Z,16.40
2023-05-14T21:09:36.103Z,16.48
2023-05-14T21:12:05.743Z,16.23
2023-05-14T21:14:33.500Z,16.60
2023-05-14T21:17:01.275Z,16.30
2023-05-14T21:19:29.078Z,16.10
2023-05-14T21:21:56.907Z,16.50
2023-05-14T21:24:24.688Z,16.30
2023-05-14T21:26:53.682Z,16.42
2023-05-14T21:31:50.477Z,16.30
2023-05-14T21:34:18.213Z,15.88
2023-05-14T21:36:45.946Z,16.65
2023-05-14T21:39:13.753Z,16.33
2023-05-14T21:41:41.555Z,15.90
2023-05-14T21:44:12.205Z,16.70
2023-05-14T21:46:41.331Z,16.27
2023-05-14T21:51:36.681Z,16.42
2023-05-14T21:54:04.506Z,16.20
2023-05-14T21:56:32.248Z,16.10
2023-05-14T21:59:00.119Z,16.13
2023-05-14T22:01:27.891Z,16.95
2023-05-14T22:03:57.983Z,17.00
2023-05-14T22:06:26.186Z,17.35
2023-05-14T22:08:53.957Z,16.75
2023-05-14T22:11:21.874Z,18.30
2023-05-14T22:13:49.679Z,17.40
2023-05-14T22:16:17.468Z,17.83
2023-05-14T22:18:48.109Z,17.67
2023-05-14T22:21:17.214Z,17.98
2023-05-14T22:26:13.097Z,17.40
2023-05-14T22:28:42.962Z,17.77
2023-05-14T22:31:10.932Z,17.65
2023-05-14T22:33:38.708Z,17.45
2023-05-14T22:36:07.480Z,17.38
2023-05-14T22:38:36.556Z,17.42
2023-05-14T22:43:31.883Z,17.55
2023-05-14T22:46:02.025Z,18.33
2023-05-14T22:48:29.831Z,18.30
2023-05-14T22:50:57.600Z,17.83
2023-05-14T22:53:25.551Z,17.83
2023-05-14T22:55:54.737Z,18.23
2023-05-14T22:58:22.419Z,18.08
2023-05-14T23:00:50.164Z,17.35
2023-05-14T23:03:17.834Z,18.23
2023-05-14T23:05:45.624Z,18.20
2023-05-14T23:08:13.381Z,18.63
2023-05-14T23:10:46.110Z,18.98
2023-05-14T23:13:15.315Z,18.13
2023-05-14T23:15:44.063Z,18.42
2023-05-14T23:18:11.910Z,18.70
2023-05-14T23:20:39.728Z,17.60
2023-05-14T23:23:07.574Z,18.65
2023-05-14T23:25:35.333Z,18.27
2023-05-14T23:28:03.137Z,18.50
2023-05-14T23:30:32.269Z,19.40
2023-05-14T23:35:27.638Z,18.38
2023-05-14T23:37:55.443Z,18.48
2023-05-14T23:40:23.283Z,19.52
2023-05-14T23:42:51.034Z,20.10
2023-05-14T23:45:18.866Z,19.90
2023-05-14T23:47:48.185Z,19.83
2023-05-14T23:50:15.914Z,20.08
2023-05-14T23:52:43.654Z,19.40
2023-05-14T23:55:11.438Z,19.40
2023-05-14T23:57:39.238Z,19.63
